createdAt,value
2022-08-17T00:00:34.286Z,100899.44
2022-08-17T00:03:17.880Z,100901.06
2022-08-17T00:05:54.487Z,100892.03
2022-08-17T00:08:25.451Z,100895.09
2022-08-17T00:10:54.975Z,100886.69
2022-08-17T00:13:43.377Z,100882.69
2022-08-17T00:16:18.267Z,100899.78
2022-08-17T00:19:02.109Z,100894.13
2022-08-17T00:21:36.110Z,100901.75
2022-08-17T00:24:23.210Z,100887.53
2022-08-17T00:26:50.714Z,100898.34
2022-08-17T00:29:19.894Z,100906.44
2022-08-17T00:31:48.662Z,100909.00
2022-08-17T00:34:16.650Z,100907.69
2022-08-17T00:36:44.182Z,100911.09
2022-08-17T00:39:12.430Z,100912.56
2022-08-17T00:41:42.362Z,100906.25
2022-08-17T00:44:12.459Z,100908.34
2022-08-17T00:46:42.510Z,100910.28
2022-08-17T00:49:11.985Z,100913.03
2022-08-17T00:51:44.410Z,100911.75
2022-08-17T00:54:25.643Z,100917.22
2022-08-17T00:57:07.258Z,100934.81
2022-08-17T00:59:39.589Z,100923.34
2022-08-17T01:02:09.945Z,100920.75
2022-08-17T01:04:39.063Z,100923.34
2022-08-17T01:07:07.980Z,100899.78
2022-08-17T01:09:35.980Z,100904.78
2022-08-17T01:12:06.461Z,100898.97
2022-08-17T01:14:37.114Z,100907.19
2022-08-17T01:17:05.210Z,100914.94
2022-08-17T01:19:36.294Z,100921.72
2022-08-17T01:22:09.611Z,100931.56
2022-08-17T01:24:50.559Z,100953.16
2022-08-17T01:27:20.532Z,100953.66
2022-08-17T01:29:52.502Z,100966.75
2022-08-17T01:32:20.839Z,100935.25
2022-08-17T01:34:50.492Z,100925.75
2022-08-17T01:37:21.048Z,100948.66
2022-08-17T01:39:56.450Z,100963.69
2022-08-17T01:42:51.288Z,100965.13
2022-08-17T01:45:23.373Z,100949.47
2022-08-17T01:47:51.955Z,100944.81
2022-08-17T01:50:30.619Z,100947.88
2022-08-17T01:53:05.833Z,100953.38
2022-08-17T01:55:51.836Z,100951.09
2022-08-17T01:58:20.876Z,100944.47
2022-08-17T02:00:59.917Z,100948.84
2022-08-17T02:03:30.453Z,100945.94
2022-08-17T02:05:58.006Z,100937.38
2022-08-17T02:08:39.205Z,100934.97
2022-08-17T02:11:17.561Z,100924.00
2022-08-17T02:13:47.657Z,100927.53
2022-08-17T02:16:25.594Z,100923.66
2022-08-17T02:18:53.175Z,100924.78
2022-08-17T02:21:20.676Z,100919.97
2022-08-17T02:23:49.956Z,100931.09
2022-08-17T02:26:25.559Z,100921.75
2022-08-17T02:28:54.601Z,100916.88
2022-08-17T02:31:22.147Z,100921.88
2022-08-17T02:34:00.394Z,100920.75
2022-08-17T02:36:35.793Z,100923.00
2022-08-17T02:39:06.304Z,100921.38
2022-08-17T02:41:34.518Z,100920.75
2022-08-17T02:44:02.629Z,100928.66
2022-08-17T02:46:31.341Z,100924.44
2022-08-17T02:48:59.928Z,100926.88
2022-08-17T02:51:27.645Z,100937.22
2022-08-17T02:54:38.790Z,100930.59
2022-08-17T02:56:43.139Z,100933.34
2022-08-17T02:59:10.655Z,100930.59
2022-08-17T03:01:38.312Z,100931.72
2022-08-17T03:04:05.904Z,100927.84
2022-08-17T03:06:33.638Z,100942.06
2022-08-17T03:09:01.235Z,100938.19
2022-08-17T03:11:28.786Z,100932.22
2022-08-17T03:13:56.965Z,100935.94
2022-08-17T03:16:24.426Z,100932.06
2022-08-17T03:18:51.936Z,100935.31
2022-08-17T03:21:19.400Z,100934.50
2022-08-17T03:23:46.963Z,100934.97
2022-08-17T03:26:22.105Z,100941.75
2022-08-17T03:28:49.595Z,100936.75
2022-08-17T03:31:18.617Z,100940.47
2022-08-17T03:33:46.151Z,100930.44
2022-08-17T03:36:13.784Z,100928.38
2022-08-17T03:38:41.267Z,100939.34
2022-08-17T03:41:09.392Z,100934.47
2022-08-17T03:43:36.888Z,100945.94
2022-08-17T03:46:28.582Z,100947.53
2022-08-17T03:49:23.996Z,100944.66
2022-08-17T03:52:10.903Z,100945.75
2022-08-17T03:54:57.668Z,100951.38
2022-08-17T03:57:26.439Z,100950.09
2022-08-17T03:59:54.993Z,100939.72
2022-08-17T04:02:24.533Z,100953.25
2022-08-17T04:04:52.646Z,100941.75
2022-08-17T04:07:21.984Z,100947.72
2022-08-17T04:09:50.006Z,100940.59
2022-08-17T04:12:20.415Z,100950.09
2022-08-17T04:14:53.588Z,100953.78
2022-08-17T04:17:24.807Z,100951.66
2022-08-17T04:19:53.271Z,100949.53
2022-08-17T04:22:32.869Z,100948.84
2022-08-17T04:25:16.618Z,100940.81
2022-08-17T04:27:44.233Z,100947.28
2022-08-17T04:30:12.630Z,100941.09
2022-08-17T04:33:08.984Z,100939.78
2022-08-17T04:35:39.958Z,100947.16
2022-08-17T04:38:09.876Z,100946.28
2022-08-17T04:40:56.042Z,100935.06
2022-08-17T04:43:26.114Z,100943.31
2022-08-17T04:45:57.664Z,100935.47
2022-08-17T04:48:36.932Z,100941.94
2022-08-17T04:51:11.381Z,100955.50
2022-08-17T04:53:44.674Z,100940.47
2022-08-17T04:56:17.082Z,100957.22
2022-08-17T04:58:49.979Z,100966.69
2022-08-17T05:01:23.960Z,100954.19
2022-08-17T05:03:54.045Z,100955.50
2022-08-17T05:06:22.581Z,100946.22
2022-08-17T05:08:50.157Z,100955.38
2022-08-17T05:11:18.185Z,100966.72
2022-08-17T05:13:45.894Z,100953.38
2022-08-17T05:16:14.022Z,100957.81
2022-08-17T05:18:41.575Z,100951.63
2022-08-17T05:21:09.355Z,100947.97
2022-08-17T05:23:42.730Z,100946.75
2022-08-17T05:26:26.153Z,100923.03
2022-08-17T05:29:02.595Z,100925.31
2022-08-17T05:31:31.166Z,100921.41
2022-08-17T05:33:59.588Z,100912.88
2022-08-17T05:36:42.517Z,100926.94
2022-08-17T05:39:16.439Z,100923.16
2022-08-17T05:41:46.916Z,100936.00
2022-08-17T05:44:14.815Z,100940.44
2022-08-17T05:46:48.510Z,100944.31
2022-08-17T05:49:18.244Z,100954.16
2022-08-17T05:52:20.162Z,100942.38
2022-08-17T05:54:58.817Z,100928.94
2022-08-17T05:57:53.892Z,100910.00
2022-08-17T06:00:32.156Z,100898.56
2022-08-17T06:03:24.396Z,100880.16
2022-08-17T06:06:11.358Z,100859.56
2022-08-17T06:09:07.194Z,100844.22
2022-08-17T06:11:43.638Z,100844.22
2022-08-17T06:14:37.057Z,100847.59
2022-08-17T06:17:10.612Z,100873.91
2022-08-17T06:19:56.284Z,100873.38
2022-08-17T06:22:33.854Z,100878.44
2022-08-17T06:25:10.128Z,100878.09
2022-08-17T06:27:43.283Z,100882.19
2022-08-17T06:30:15.877Z,100880.34
2022-08-17T06:32:48.083Z,100881.56
2022-08-17T06:35:20.049Z,100876.78
2022-08-17T06:37:59.658Z,100881.91
2022-08-17T06:40:40.552Z,100858.94
2022-08-17T06:43:48.969Z,100855.63
2022-08-17T06:46:22.579Z,100845.91
2022-08-17T06:49:01.964Z,100856.69
2022-08-17T06:51:40.931Z,100833.53
2022-08-17T06:54:23.757Z,100862.72
2022-08-17T06:57:22.771Z,100851.28
2022-08-17T06:59:56.780Z,100845.22
2022-08-17T07:02:57.080Z,100821.38
2022-08-17T07:05:44.988Z,100810.63
2022-08-17T07:08:45.220Z,100797.34
2022-08-17T07:11:20.931Z,100805.28
2022-08-17T07:14:29.862Z,100807.25
2022-08-17T07:17:01.655Z,100817.22
2022-08-17T07:19:33.742Z,100823.81
2022-08-17T07:22:28.144Z,100834.34
2022-08-17T07:24:58.747Z,100832.47
2022-08-17T07:27:53.991Z,100826.19
2022-08-17T07:30:23.717Z,100827.94
2022-08-17T07:33:01.195Z,100817.56
2022-08-17T07:35:44.149Z,100812.13
2022-08-17T07:38:25.330Z,100815.41
2022-08-17T07:41:06.430Z,100795.75
2022-08-17T07:43:39.814Z,100802.28
2022-08-17T07:46:37.784Z,100800.38
2022-08-17T07:49:10.803Z,100800.59
2022-08-17T07:51:44.409Z,100799.56
2022-08-17T07:54:19.773Z,100802.16
2022-08-17T07:56:50.137Z,100800.78
2022-08-17T07:59:23.110Z,100794.78
2022-08-17T08:02:07.233Z,100790.31
2022-08-17T08:05:01.651Z,100783.03
2022-08-17T08:07:51.364Z,100783.97
2022-08-17T08:10:33.815Z,100780.53
2022-08-17T08:13:14.701Z,100776.25
2022-08-17T08:15:53.463Z,100771.59
2022-08-17T08:18:47.610Z,100769.75
2022-08-17T08:21:22.462Z,100772.25
2022-08-17T08:23:57.746Z,100753.53
2022-08-17T08:26:37.743Z,100757.16
2022-08-17T08:29:18.540Z,100754.75
2022-08-17T08:32:08.051Z,100749.88
2022-08-17T08:34:53.494Z,100741.19
2022-08-17T08:37:51.008Z,100746.47
2022-08-17T08:40:47.848Z,100754.38
2022-08-17T08:43:40.626Z,100743.00
2022-08-17T08:46:18.402Z,100749.13
2022-08-17T08:49:39.294Z,100729.34
2022-08-17T08:52:38.831Z,100738.44
2022-08-17T08:55:24.977Z,100734.09
2022-08-17T08:58:06.302Z,100736.94
2022-08-17T09:00:39.428Z,100736.56
2022-08-17T09:03:37.592Z,100738.94
2022-08-17T09:06:39.197Z,100721.31
2022-08-17T09:09:37.656Z,100725.47
2022-08-17T09:12:05.296Z,100718.19
2022-08-17T09:14:50.594Z,100713.03
2022-08-17T09:17:36.050Z,100718.09
2022-08-17T09:20:28.216Z,100709.50
2022-08-17T09:23:08.218Z,100702.75
2022-08-17T09:25:51.509Z,100701.34
2022-08-17T09:28:30.841Z,100704.81
2022-08-17T09:31:04.526Z,100692.56
2022-08-17T09:33:37.370Z,100700.13
2022-08-17T09:36:12.155Z,100707.81
2022-08-17T09:38:42.538Z,100686.63
2022-08-17T09:41:15.637Z,100684.91
2022-08-17T09:43:54.853Z,100682.38
2022-08-17T09:46:36.205Z,100677.59
2022-08-17T09:49:23.183Z,100671.75
2022-08-17T09:51:58.943Z,100663.47
2022-08-17T09:54:41.771Z,100677.09
2022-08-17T09:57:44.061Z,100660.47
2022-08-17T10:00:27.771Z,100671.72
2022-08-17T10:03:19.187Z,100654.41
2022-08-17T10:05:57.032Z,100646.19
2022-08-17T10:08:52.808Z,100636.72
2022-08-17T10:11:54.768Z,100634.53
2022-08-17T10:14:55.522Z,100648.03
2022-08-17T10:17:41.990Z,100652.84
2022-08-17T10:20:09.751Z,100661.94
2022-08-17T10:23:06.097Z,100637.78
2022-08-17T10:25:58.079Z,100638.94
2022-08-17T10:28:32.384Z,100629.03
2022-08-17T10:34:05.843Z,100649.69
2022-08-17T10:36:55.779Z,100633.97
2022-08-17T10:39:33.691Z,100617.50
2022-08-17T10:42:16.438Z,100631.09
2022-08-17T10:45:07.330Z,100626.09
2022-08-17T10:48:08.969Z,100629.81
2022-08-17T10:51:10.431Z,100621.94
2022-08-17T10:53:42.370Z,100625.03
2022-08-17T10:56:13.789Z,100631.72
2022-08-17T10:58:57.414Z,100630.91
2022-08-17T11:01:38.142Z,100626.34
2022-08-17T11:04:38.413Z,100626.56
2022-08-17T11:07:18.173Z,100626.09
2022-08-17T11:10:16.035Z,100636.16
2022-08-17T11:13:07.050Z,100621.94
2022-08-17T11:15:52.785Z,100624.31
2022-08-17T11:18:28.898Z,100625.47
2022-08-17T11:21:05.498Z,100636.69
2022-08-17T11:23:42.019Z,100620.44
2022-08-17T11:26:26.344Z,100630.63
2022-08-17T11:29:09.807Z,100644.47
2022-08-17T11:31:44.651Z,100630.34
2022-08-17T11:34:26.643Z,100628.13
2022-08-17T11:37:21.778Z,100625.34
2022-08-17T11:40:07.524Z,100608.56
2022-08-17T11:43:13.598Z,100614.34
2022-08-17T11:45:55.209Z,100612.03
2022-08-17T11:49:14.084Z,100608.19
2022-08-17T11:51:56.625Z,100611.06
2022-08-17T11:54:35.972Z,100609.19
2022-08-17T11:57:26.195Z,100597.69
2022-08-17T12:00:01.480Z,100603.50
2022-08-17T12:02:35.501Z,100583.53
2022-08-17T12:05:14.605Z,100584.78
2022-08-17T12:07:49.713Z,100577.38
2022-08-17T12:10:21.853Z,100590.28
2022-08-17T12:12:53.494Z,100573.72
2022-08-17T12:15:32.617Z,100575.06
2022-08-17T12:18:00.236Z,100594.66
2022-08-17T12:20:35.554Z,100588.38
2022-08-17T12:23:33.840Z,100589.22
2022-08-17T12:26:10.071Z,100582.09
2022-08-17T12:28:44.288Z,100570.63
2022-08-17T12:31:22.235Z,100574.28
2022-08-17T12:33:52.019Z,100573.13
2022-08-17T12:36:24.956Z,100569.53
2022-08-17T12:39:12.969Z,100571.94
2022-08-17T12:41:47.200Z,100567.13
2022-08-17T12:44:20.343Z,100562.31
2022-08-17T12:47:04.868Z,100568.63
2022-08-17T12:49:35.811Z,100560.22
2022-08-17T12:52:08.092Z,100544.66
2022-08-17T12:54:51.436Z,100543.81
2022-08-17T12:57:20.920Z,100539.78
2022-08-17T12:59:53.091Z,100539.38
2022-08-17T13:02:39.033Z,100538.19
2022-08-17T13:05:09.158Z,100528.31
2022-08-17T13:07:42.738Z,100519.22
2022-08-17T13:10:21.948Z,100524.81
2022-08-17T13:12:51.257Z,100516.84
2022-08-17T13:15:53.523Z,100523.28
2022-08-17T13:18:42.666Z,100528.88
2022-08-17T13:21:19.232Z,100541.31
2022-08-17T13:24:10.873Z,100538.97
2022-08-17T13:26:42.783Z,100532.22
2022-08-17T13:29:28.944Z,100530.63
2022-08-17T13:32:16.358Z,100537.00
2022-08-17T13:35:14.846Z,100529.84
2022-08-17T13:38:01.988Z,100519.50
2022-08-17T13:40:52.214Z,100520.66
2022-08-17T13:43:39.635Z,100523.84
2022-08-17T13:46:33.882Z,100511.91
2022-08-17T13:49:10.061Z,100523.06
2022-08-17T13:51:45.784Z,100533.81
2022-08-17T13:54:29.892Z,100503.91
2022-08-17T13:57:26.066Z,100501.94
2022-08-17T14:00:10.400Z,100507.50
2022-08-17T14:02:38.178Z,100485.19
2022-08-17T14:05:06.189Z,100474.41
2022-08-17T14:07:39.958Z,100480.41
2022-08-17T14:10:15.183Z,100478.03
2022-08-17T14:12:44.306Z,100492.41
2022-08-17T14:15:14.720Z,100484.47
2022-08-17T14:17:42.321Z,100494.44
2022-08-17T14:20:12.376Z,100479.69
2022-08-17T14:22:45.450Z,100471.75
2022-08-17T14:25:15.865Z,100478.91
2022-08-17T14:27:52.595Z,100474.56
2022-08-17T14:30:24.790Z,100466.19
2022-08-17T14:32:53.250Z,100451.06
2022-08-17T14:35:23.332Z,100448.72
2022-08-17T14:37:52.324Z,100460.25
2022-08-17T14:40:25.030Z,100457.06
2022-08-17T14:42:55.436Z,100459.44
2022-08-17T14:45:29.980Z,100450.69
2022-08-17T14:48:04.439Z,100447.91
2022-08-17T14:50:35.519Z,100469.41
2022-08-17T14:53:04.806Z,100456.66
2022-08-17T14:55:32.918Z,100467.41
2022-08-17T14:58:02.296Z,100450.31
2022-08-17T15:00:29.805Z,100455.09
2022-08-17T15:03:00.271Z,100450.31
2022-08-17T15:05:31.860Z,100454.31
2022-08-17T15:08:01.401Z,100448.72
2022-08-17T15:10:30.484Z,100458.28
2022-08-17T15:12:58.130Z,100452.72
2022-08-17T15:15:27.152Z,100451.91
2022-08-17T15:17:54.874Z,100447.94
2022-08-17T15:20:28.261Z,100452.28
2022-08-17T15:22:59.243Z,100445.94
2022-08-17T15:25:29.594Z,100453.47
2022-08-17T15:27:57.808Z,100449.50
2022-08-17T15:30:26.819Z,100458.97
2022-08-17T15:32:55.742Z,100451.00
2022-08-17T15:35:28.182Z,100452.56
2022-08-17T15:38:11.153Z,100454.91
2022-08-17T15:40:47.037Z,100439.00
2022-08-17T15:43:27.823Z,100446.88
2022-08-17T15:46:01.061Z,100446.81
2022-08-17T15:48:41.693Z,100449.94
2022-08-17T15:51:15.275Z,100462.19
2022-08-17T15:53:46.436Z,100447.78
2022-08-17T15:56:15.309Z,100456.84
2022-08-17T15:58:44.491Z,100458.34
2022-08-17T16:01:16.983Z,100462.59
2022-08-17T16:04:04.121Z,100459.28
2022-08-17T16:06:34.752Z,100454.75
2022-08-17T16:09:02.258Z,100455.44
2022-08-17T16:11:30.215Z,100456.09
2022-08-17T16:13:57.684Z,100462.28
2022-08-17T16:16:26.316Z,100452.28
2022-08-17T16:18:58.377Z,100456.88
2022-08-17T16:21:27.377Z,100456.75
2022-08-17T16:24:05.641Z,100455.00
2022-08-17T16:26:40.718Z,100459.19
2022-08-17T16:29:08.558Z,100466.97
2022-08-17T16:31:37.921Z,100439.75
2022-08-17T16:34:17.876Z,100464.69
2022-08-17T16:36:51.867Z,100473.97
2022-08-17T16:39:26.600Z,100474.25
2022-08-17T16:41:54.439Z,100478.44
2022-08-17T16:44:22.444Z,100477.53
2022-08-17T16:46:50.669Z,100475.41
2022-08-17T16:49:36.238Z,100478.47
2022-08-17T16:52:07.628Z,100476.75
2022-08-17T16:54:37.431Z,100478.19
2022-08-17T16:57:05.532Z,100472.53
2022-08-17T16:59:41.018Z,100474.75
2022-08-17T17:02:14.876Z,100475.34
2022-08-17T17:04:57.892Z,100466.88
2022-08-17T17:07:37.506Z,100479.44
2022-08-17T17:10:11.834Z,100471.72
2022-08-17T17:13:02.898Z,100489.88
2022-08-17T17:15:39.881Z,100469.97
2022-08-17T17:18:15.589Z,100479.56
2022-08-17T17:21:03.421Z,100488.28
2022-08-17T17:23:40.655Z,100477.25
2022-08-17T17:26:11.253Z,100475.63
2022-08-17T17:28:49.007Z,100480.72
2022-08-17T17:31:21.295Z,100488.97
2022-08-17T17:34:11.033Z,100481.75
2022-08-17T17:36:45.960Z,100491.50
2022-08-17T17:39:36.807Z,100488.16
2022-08-17T17:42:10.027Z,100496.22
2022-08-17T17:45:09.704Z,100495.25
2022-08-17T17:47:37.355Z,100497.50
2022-08-17T17:50:07.327Z,100495.34
2022-08-17T17:52:48.461Z,100503.03
2022-08-17T17:55:33.889Z,100490.34
2022-08-17T17:58:27.559Z,100500.06
2022-08-17T18:01:31.872Z,100492.47
2022-08-17T18:04:26.599Z,100487.03
2022-08-17T18:07:13.777Z,100492.03
2022-08-17T18:10:29.310Z,100497.91
2022-08-17T18:13:26.694Z,100489.47
2022-08-17T18:15:56.574Z,100500.03
2022-08-17T18:18:38.346Z,100508.53
2022-08-17T18:21:16.882Z,100498.25
2022-08-17T18:23:52.330Z,100495.34
2022-08-17T18:26:42.071Z,100495.25
2022-08-17T18:29:31.739Z,100502.63
2022-08-17T18:32:32.834Z,100510.34
2022-08-17T18:35:28.221Z,100523.91
2022-08-17T18:38:33.921Z,100519.38
2022-08-17T18:41:20.939Z,100520.22
2022-08-17T18:44:05.163Z,100506.13
2022-08-17T18:46:37.815Z,100521.94
2022-08-17T18:49:26.937Z,100522.41
2022-08-17T18:52:31.709Z,100524.00
2022-08-17T18:55:15.819Z,100522.06
2022-08-17T18:57:47.119Z,100528.69
2022-08-17T19:00:20.379Z,100530.91
2022-08-17T19:02:57.636Z,100539.72
2022-08-17T19:05:31.217Z,100547.50
2022-08-17T19:08:33.362Z,100541.13
2022-08-17T19:11:11.125Z,100539.25
2022-08-17T19:13:53.377Z,100535.16
2022-08-17T19:16:25.502Z,100544.03
2022-08-17T19:18:58.239Z,100546.78
2022-08-17T19:21:37.498Z,100540.13
2022-08-17T19:24:24.933Z,100550.91
2022-08-17T19:26:57.604Z,100548.69
2022-08-17T19:29:34.187Z,100548.22
2022-08-17T19:32:02.272Z,100543.09
2022-08-17T19:34:34.471Z,100540.34
2022-08-17T19:37:07.770Z,100537.94
2022-08-17T19:39:51.177Z,100527.03
2022-08-17T19:42:39.555Z,100529.91
2022-08-17T19:45:19.801Z,100524.56
2022-08-17T19:48:16.214Z,100519.41
2022-08-17T19:50:48.563Z,100525.56
2022-08-17T19:53:18.857Z,100518.25
2022-08-17T19:55:54.360Z,100518.81
2022-08-17T19:58:27.339Z,100517.78
2022-08-17T20:00:55.514Z,100515.50
2022-08-17T20:03:32.739Z,100510.88
2022-08-17T20:06:13.076Z,100510.28
2022-08-17T20:08:58.427Z,100509.25
2022-08-17T20:11:44.927Z,100506.97
2022-08-17T20:14:16.491Z,100515.69
2022-08-17T20:16:44.205Z,100511.41
2022-08-17T20:19:33.049Z,100517.38
2022-08-17T20:22:15.757Z,100524.03
2022-08-17T20:25:00.941Z,100525.53
2022-08-17T20:27:36.606Z,100518.66
2022-08-17T20:30:10.551Z,100526.78
2022-08-17T20:32:52.549Z,100531.28
2022-08-17T20:35:26.054Z,100530.16
2022-08-17T20:37:55.653Z,100524.31
2022-08-17T20:40:27.588Z,100528.28
2022-08-17T20:42:56.450Z,100535.41
2022-08-17T20:45:24.579Z,100532.28
2022-08-17T20:48:36.982Z,100537.09
2022-08-17T20:51:22.739Z,100543.38
2022-08-17T20:53:50.415Z,100531.69
2022-08-17T20:56:43.413Z,100534.66
2022-08-17T20:59:26.126Z,100533.22
2022-08-17T21:02:08.063Z,100532.28
2022-08-17T21:05:03.955Z,100523.81
2022-08-17T21:07:43.483Z,100520.47
2022-08-17T21:10:24.264Z,100518.25
2022-08-17T21:12:57.975Z,100507.50
2022-08-17T21:15:42.014Z,100518.75
2022-08-17T21:18:28.845Z,100517.59
2022-08-17T21:21:21.649Z,100509.34
2022-08-17T21:24:29.064Z,100521.94
2022-08-17T21:27:17.753Z,100526.16
2022-08-17T21:30:13.009Z,100528.13
2022-08-17T21:32:42.312Z,100528.81
2022-08-17T21:35:30.658Z,100535.78
2022-08-17T21:38:04.629Z,100532.09
2022-08-17T21:40:34.236Z,100529.56
2022-08-17T21:43:17.313Z,100529.91
2022-08-17T21:45:56.234Z,100536.72
2022-08-17T21:48:27.687Z,100543.56
2022-08-17T21:51:10.598Z,100542.59
2022-08-17T21:53:43.932Z,100540.84
2022-08-17T21:56:13.536Z,100535.22
2022-08-17T21:58:48.258Z,100537.50
2022-08-17T22:01:24.066Z,100534.28
2022-08-17T22:03:59.279Z,100537.03
2022-08-17T22:06:56.643Z,100537.72
2022-08-17T22:09:31.933Z,100534.50
2022-08-17T22:12:09.380Z,100535.97
2022-08-17T22:14:52.181Z,100533.88
2022-08-17T22:17:38.991Z,100532.28
2022-08-17T22:20:14.576Z,100536.16
2022-08-17T22:23:20.233Z,100538.56
2022-08-17T22:26:03.993Z,100536.63
2022-08-17T22:28:41.811Z,100528.38
2022-08-17T22:31:14.589Z,100527.56
2022-08-17T22:33:44.316Z,100524.41
2022-08-17T22:36:25.858Z,100529.06
2022-08-17T22:39:01.162Z,100521.34
2022-08-17T22:41:36.316Z,100516.41
2022-08-17T22:44:21.348Z,100518.09
2022-08-17T22:47:14.449Z,100518.59
2022-08-17T22:49:53.458Z,100523.00
2022-08-17T22:52:32.512Z,100514.66
2022-08-17T22:55:39.365Z,100515.31
2022-08-17T22:58:30.686Z,100521.16
2022-08-17T23:01:25.945Z,100525.06
2022-08-17T23:04:22.132Z,100525.22
2022-08-17T23:06:49.612Z,100534.78
2022-08-17T23:09:17.106Z,100528.66
2022-08-17T23:11:49.380Z,100540.63
2022-08-17T23:14:20.498Z,100536.75
2022-08-17T23:16:50.403Z,100543.69
2022-08-17T23:19:20.856Z,100538.88
2022-08-17T23:21:50.731Z,100543.09
2022-08-17T23:24:32.837Z,100534.69
2022-08-17T23:27:00.296Z,100546.78
2022-08-17T23:29:29.700Z,100550.97
2022-08-17T23:32:00.184Z,100553.56
2022-08-17T23:34:28.895Z,100553.88
2022-08-17T23:36:56.835Z,100549.38
2022-08-17T23:39:27.634Z,100557.13
2022-08-17T23:41:58.507Z,100547.44
2022-08-17T23:44:26.638Z,100559.22
2022-08-17T23:46:55.212Z,100546.50
2022-08-17T23:49:23.721Z,100552.94
2022-08-17T23:51:53.899Z,100556.47
2022-08-17T23:54:21.329Z,100558.75
2022-08-17T23:56:48.854Z,100552.00
2022-08-17T23:59:21.569Z,100559.72
